sensor_id;sensor_type;location;lat;lon;timestamp;P1;durP1;ratioP1;P2;durP2;ratioP2
48651;SDS011;34442;52.362;-1.302;2023-05-02T00:02:01;2.25;;;1.20;;
48651;SDS011;34442;52.362;-1.302;2023-05-02T00:04:27;3.00;;;1.50;;
48651;SDS011;34442;52.362;-1.302;2023-05-02T00:06:52;4.32;;;2.17;;
48651;SDS011;34442;52.362;-1.302;2023-05-02T00:09:18;3.10;;;1.30;;
48651;SDS011;34442;52.362;-1.302;2023-05-02T00:11:43;3.13;;;1.60;;
48651;SDS011;34442;52.362;-1.302;2023-05-02T00:14:08;3.03;;;1.63;;
48651;SDS011;34442;52.362;-1.302;2023-05-02T00:16:34;2.58;;;1.33;;
48651;SDS011;34442;52.362;-1.302;2023-05-02T00:19:00;2.40;;;1.40;;
48651;SDS011;34442;52.362;-1.302;2023-05-02T00:21:25;1.83;;;1.20;;
48651;SDS011;34442;52.362;-1.302;2023-05-02T00:23:53;2.15;;;1.33;;
48651;SDS011;34442;52.362;-1.302;2023-05-02T00:26:21;2.63;;;1.40;;
48651;SDS011;34442;52.362;-1.302;2023-05-02T00:28:47;2.85;;;1.52;;
48651;SDS011;34442;52.362;-1.302;2023-05-02T00:31:12;2.53;;;1.50;;
48651;SDS011;34442;52.362;-1.302;2023-05-02T00:33:37;3.08;;;1.60;;
48651;SDS011;34442;52.362;-1.302;2023-05-02T00:36:03;2.50;;;1.40;;
48651;SDS011;34442;52.362;-1.302;2023-05-02T00:38:28;3.92;;;1.77;;
48651;SDS011;34442;52.362;-1.302;2023-05-02T00:40:54;3.13;;;1.60;;
48651;SDS011;34442;52.362;-1.302;2023-05-02T00:43:19;3.72;;;1.65;;
48651;SDS011;34442;52.362;-1.302;2023-05-02T00:45:45;2.17;;;1.30;;
48651;SDS011;34442;52.362;-1.302;2023-05-02T00:48:11;2.13;;;1.20;;
48651;SDS011;34442;52.362;-1.302;2023-05-02T00:50:40;2.35;;;1.48;;
48651;SDS011;34442;52.362;-1.302;2023-05-02T00:53:07;3.03;;;1.52;;
48651;SDS011;34442;52.362;-1.302;2023-05-02T00:55:35;2.78;;;1.25;;
48651;SDS011;34442;52.362;-1.302;2023-05-02T00:58:02;2.88;;;1.13;;
48651;SDS011;34442;52.362;-1.302;2023-05-02T01:01:15;1.83;;;0.98;;
48651;SDS011;34442;52.362;-1.302;2023-05-02T01:03:40;1.60;;;1.20;;
48651;SDS011;34442;52.362;-1.302;2023-05-02T01:12:00;1.60;;;0.80;;
48651;SDS011;34442;52.362;-1.302;2023-05-02T01:14:29;1.92;;;0.98;;
48651;SDS011;34442;52.362;-1.302;2023-05-02T01:16:57;1.60;;;0.93;;
48651;SDS011;34442;52.362;-1.302;2023-05-02T01:19:36;1.25;;;0.90;;
48651;SDS011;34442;52.362;-1.302;2023-05-02T01:22:06;1.80;;;1.00;;
48651;SDS011;34442;52.362;-1.302;2023-05-02T01:27:25;2.00;;;1.00;;
48651;SDS011;34442;52.362;-1.302;2023-05-02T01:29:59;2.80;;;1.33;;
48651;SDS011;34442;52.362;-1.302;2023-05-02T01:32:27;3.10;;;1.55;;
48651;SDS011;34442;52.362;-1.302;2023-05-02T01:34:55;3.55;;;1.55;;
48651;SDS011;34442;52.362;-1.302;2023-05-02T01:37:23;3.83;;;1.50;;
48651;SDS011;34442;52.362;-1.302;2023-05-02T01:39:50;2.50;;;1.52;;
48651;SDS011;34442;52.362;-1.302;2023-05-02T01:42:18;4.90;;;1.50;;
48651;SDS011;34442;52.362;-1.302;2023-05-02T01:44:45;3.40;;;1.60;;
48651;SDS011;34442;52.362;-1.302;2023-05-02T01:47:12;2.58;;;1.42;;
48651;SDS011;34442;52.362;-1.302;2023-05-02T01:49:39;2.45;;;1.40;;
48651;SDS011;34442;52.362;-1.302;2023-05-02T01:52:07;4.00;;;1.35;;
48651;SDS011;34442;52.362;-1.302;2023-05-02T01:54:35;2.55;;;1.30;;
48651;SDS011;34442;52.362;-1.302;2023-05-02T01:57:03;2.75;;;1.25;;
48651;SDS011;34442;52.362;-1.302;2023-05-02T01:59:31;2.53;;;1.20;;
48651;SDS011;34442;52.362;-1.302;2023-05-02T02:01:58;2.63;;;1.58;;
48651;SDS011;34442;52.362;-1.302;2023-05-02T02:04:26;2.25;;;1.23;;
48651;SDS011;34442;52.362;-1.302;2023-05-02T02:07:12;1.80;;;1.30;;
48651;SDS011;34442;52.362;-1.302;2023-05-02T02:09:38;1.98;;;1.08;;
48651;SDS011;34442;52.362;-1.302;2023-05-02T02:12:05;1.80;;;1.17;;
48651;SDS011;34442;52.362;-1.302;2023-05-02T02:14:45;2.08;;;1.20;;
48651;SDS011;34442;52.362;-1.302;2023-05-02T02:17:26;1.73;;;1.10;;
48651;SDS011;34442;52.362;-1.302;2023-05-02T02:20:00;2.42;;;1.40;;
48651;SDS011;34442;52.362;-1.302;2023-05-02T02:22:29;1.90;;;1.05;;
48651;SDS011;34442;52.362;-1.302;2023-05-02T02:24:58;2.90;;;1.33;;
48651;SDS011;34442;52.362;-1.302;2023-05-02T02:27:23;2.22;;;1.40;;
48651;SDS011;34442;52.362;-1.302;2023-05-02T02:29:49;3.80;;;1.42;;
48651;SDS011;34442;52.362;-1.302;2023-05-02T02:32:15;3.30;;;1.40;;
48651;SDS011;34442;52.362;-1.302;2023-05-02T02:34:40;2.35;;;1.30;;
48651;SDS011;34442;52.362;-1.302;2023-05-02T02:37:53;5.20;;;2.20;;
48651;SDS011;34442;52.362;-1.302;2023-05-02T02:40:08;2.67;;;1.50;;
48651;SDS011;34442;52.362;-1.302;2023-05-02T02:45:29;2.65;;;1.40;;
48651;SDS011;34442;52.362;-1.302;2023-05-02T02:48:18;2.42;;;1.42;;
48651;SDS011;34442;52.362;-1.302;2023-05-02T02:53:32;3.03;;;1.40;;
48651;SDS011;34442;52.362;-1.302;2023-05-02T02:56:04;4.53;;;2.00;;
48651;SDS011;34442;52.362;-1.302;2023-05-02T03:01:00;4.03;;;1.80;;
48651;SDS011;34442;52.362;-1.302;2023-05-02T03:03:28;3.03;;;1.35;;
48651;SDS011;34442;52.362;-1.302;2023-05-02T03:05:55;4.30;;;1.63;;
48651;SDS011;34442;52.362;-1.302;2023-05-02T03:08:21;4.63;;;2.13;;
48651;SDS011;34442;52.362;-1.302;2023-05-02T03:10:46;5.10;;;1.90;;
48651;SDS011;34442;52.362;-1.302;2023-05-02T03:13:12;3.08;;;1.40;;
48651;SDS011;34442;52.362;-1.302;2023-05-02T03:18:18;4.25;;;1.75;;
48651;SDS011;34442;52.362;-1.302;2023-05-02T03:20:43;4.88;;;1.70;;
48651;SDS011;34442;52.362;-1.302;2023-05-02T03:23:09;3.70;;;1.55;;
48651;SDS011;34442;52.362;-1.302;2023-05-02T03:25:34;3.28;;;1.48;;
48651;SDS011;34442;52.362;-1.302;2023-05-02T03:28:00;5.32;;;2.45;;
48651;SDS011;34442;52.362;-1.302;2023-05-02T03:30:25;5.43;;;2.28;;
48651;SDS011;34442;52.362;-1.302;2023-05-02T03:32:50;4.10;;;1.55;;
48651;SDS011;34442;52.362;-1.302;2023-05-02T03:35:16;2.80;;;1.52;;
48651;SDS011;34442;52.362;-1.302;2023-05-02T03:37:42;2.90;;;1.40;;
48651;SDS011;34442;52.362;-1.302;2023-05-02T03:40:07;3.83;;;1.52;;
48651;SDS011;34442;52.362;-1.302;2023-05-02T03:42:33;3.03;;;1.20;;
48651;SDS011;34442;52.362;-1.302;2023-05-02T03:45:04;3.78;;;2.10;;
48651;SDS011;34442;52.362;-1.302;2023-05-02T03:47:30;4.10;;;1.67;;
48651;SDS011;34442;52.362;-1.302;2023-05-02T03:49:56;5.65;;;2.25;;
48651;SDS011;34442;52.362;-1.302;2023-05-02T03:52:22;3.38;;;1.58;;
48651;SDS011;34442;52.362;-1.302;2023-05-02T03:54:47;3.53;;;1.60;;
48651;SDS011;34442;52.362;-1.302;2023-05-02T03:57:12;4.07;;;1.88;;
48651;SDS011;34442;52.362;-1.302;2023-05-02T03:59:38;3.47;;;2.15;;
48651;SDS011;34442;52.362;-1.302;2023-05-02T04:02:05;3.38;;;1.70;;
48651;SDS011;34442;52.362;-1.302;2023-05-02T04:04:31;4.03;;;1.77;;
48651;SDS011;34442;52.362;-1.302;2023-05-02T04:06:56;5.05;;;2.20;;
48651;SDS011;34442;52.362;-1.302;2023-05-02T04:09:22;4.10;;;2.17;;
48651;SDS011;34442;52.362;-1.302;2023-05-02T04:11:49;5.20;;;1.88;;
48651;SDS011;34442;52.362;-1.302;2023-05-02T04:14:15;5.57;;;2.70;;
48651;SDS011;34442;52.362;-1.302;2023-05-02T04:16:40;4.80;;;2.40;;
48651;SDS011;34442;52.362;-1.302;2023-05-02T04:19:05;4.35;;;2.00;;
48651;SDS011;34442;52.362;-1.302;2023-05-02T04:21:31;3.10;;;1.88;;
48651;SDS011;34442;52.362;-1.302;2023-05-02T04:23:56;2.80;;;1.77;;
48651;SDS011;34442;52.362;-1.302;2023-05-02T04:26:22;3.28;;;2.00;;
48651;SDS011;34442;52.362;-1.302;2023-05-02T04:28:48;3.90;;;2.33;;
48651;SDS011;34442;52.362;-1.302;2023-05-02T04:31:13;5.07;;;2.47;;
48651;SDS011;34442;52.362;-1.302;2023-05-02T04:33:39;3.72;;;1.90;;
48651;SDS011;34442;52.362;-1.302;2023-05-02T04:36:04;6.22;;;2.53;;
48651;SDS011;34442;52.362;-1.302;2023-05-02T04:38:30;4.15;;;2.25;;
48651;SDS011;34442;52.362;-1.302;2023-05-02T04:40:55;4.60;;;2.10;;
48651;SDS011;34442;52.362;-1.302;2023-05-02T04:43:20;3.38;;;1.90;;
48651;SDS011;34442;52.362;-1.302;2023-05-02T04:45:46;3.28;;;1.77;;
48651;SDS011;34442;52.362;-1.302;2023-05-02T04:48:12;5.95;;;2.25;;
48651;SDS011;34442;52.362;-1.302;2023-05-02T04:50:37;5.47;;;3.10;;
48651;SDS011;34442;52.362;-1.302;2023-05-02T04:53:02;5.72;;;2.45;;
48651;SDS011;34442;52.362;-1.302;2023-05-02T04:55:28;3.05;;;1.80;;
48651;SDS011;34442;52.362;-1.302;2023-05-02T04:57:54;4.78;;;1.92;;
48651;SDS011;34442;52.362;-1.302;2023-05-02T05:00:19;6.25;;;2.85;;
48651;SDS011;34442;52.362;-1.302;2023-05-02T05:02:45;4.45;;;2.10;;
48651;SDS011;34442;52.362;-1.302;2023-05-02T05:05:14;5.15;;;2.58;;
48651;SDS011;34442;52.362;-1.302;2023-05-02T05:07:39;4.85;;;2.42;;
48651;SDS011;34442;52.362;-1.302;2023-05-02T05:10:05;3.15;;;2.10;;
48651;SDS011;34442;52.362;-1.302;2023-05-02T05:12:32;3.83;;;2.10;;
48651;SDS011;34442;52.362;-1.302;2023-05-02T05:14:57;4.10;;;2.40;;
48651;SDS011;34442;52.362;-1.302;2023-05-02T05:17:22;3.00;;;1.80;;
48651;SDS011;34442;52.362;-1.302;2023-05-02T05:19:48;3.78;;;2.10;;
48651;SDS011;34442;52.362;-1.302;2023-05-02T05:22:13;3.05;;;1.80;;
48651;SDS011;34442;52.362;-1.302;2023-05-02T05:24:39;2.30;;;1.30;;
48651;SDS011;34442;52.362;-1.302;2023-05-02T05:27:05;3.28;;;1.60;;
48651;SDS011;34442;52.362;-1.302;2023-05-02T05:29:30;2.78;;;1.50;;
48651;SDS011;34442;52.362;-1.302;2023-05-02T05:31:57;3.97;;;1.75;;
48651;SDS011;34442;52.362;-1.302;2023-05-02T05:34:22;3.03;;;1.50;;
48651;SDS011;34442;52.362;-1.302;2023-05-02T05:36:49;3.70;;;1.83;;
48651;SDS011;34442;52.362;-1.302;2023-05-02T05:39:14;5.45;;;2.40;;
48651;SDS011;34442;52.362;-1.302;2023-05-02T05:41:40;3.38;;;1.48;;
48651;SDS011;34442;52.362;-1.302;2023-05-02T05:44:05;3.55;;;1.67;;
48651;SDS011;34442;52.362;-1.302;2023-05-02T05:46:31;5.10;;;2.13;;
48651;SDS011;34442;52.362;-1.302;2023-05-02T05:48:56;4.60;;;1.98;;
48651;SDS011;34442;52.362;-1.302;2023-05-02T05:51:21;4.28;;;1.75;;
48651;SDS011;34442;52.362;-1.302;2023-05-02T05:53:47;6.15;;;2.08;;
48651;SDS011;34442;52.362;-1.302;2023-05-02T05:56:12;2.83;;;1.55;;
48651;SDS011;34442;52.362;-1.302;2023-05-02T05:58:38;2.63;;;1.60;;
48651;SDS011;34442;52.362;-1.302;2023-05-02T06:01:04;3.65;;;1.83;;
48651;SDS011;34442;52.362;-1.302;2023-05-02T06:03:30;4.10;;;1.88;;
48651;SDS011;34442;52.362;-1.302;2023-05-02T06:05:55;2.53;;;1.30;;
48651;SDS011;34442;52.362;-1.302;2023-05-02T06:08:21;2.88;;;1.35;;
48651;SDS011;34442;52.362;-1.302;2023-05-02T06:10:46;3.50;;;1.63;;
48651;SDS011;34442;52.362;-1.302;2023-05-02T06:13:12;5.15;;;2.35;;
48651;SDS011;34442;52.362;-1.302;2023-05-02T06:15:37;2.55;;;1.60;;
48651;SDS011;34442;52.362;-1.302;2023-05-02T06:18:03;2.53;;;1.45;;
48651;SDS011;34442;52.362;-1.302;2023-05-02T06:20:28;3.40;;;1.50;;
48651;SDS011;34442;52.362;-1.302;2023-05-02T06:22:53;1.98;;;1.20;;
48651;SDS011;34442;52.362;-1.302;2023-05-02T06:25:19;3.45;;;1.38;;
48651;SDS011;34442;52.362;-1.302;2023-05-02T06:27:45;1.80;;;1.27;;
48651;SDS011;34442;52.362;-1.302;2023-05-02T06:30:10;1.58;;;1.20;;
48651;SDS011;34442;52.362;-1.302;2023-05-02T06:32:36;3.40;;;1.58;;
48651;SDS011;34442;52.362;-1.302;2023-05-02T06:35:02;3.13;;;1.38;;
48651;SDS011;34442;52.362;-1.302;2023-05-02T06:37:31;1.55;;;1.10;;
48651;SDS011;34442;52.362;-1.302;2023-05-02T06:39:57;2.25;;;1.08;;
48651;SDS011;34442;52.362;-1.302;2023-05-02T06:42:23;1.80;;;1.17;;
48651;SDS011;34442;52.362;-1.302;2023-05-02T06:44:49;4.10;;;1.58;;
48651;SDS011;34442;52.362;-1.302;2023-05-02T06:47:15;2.33;;;1.30;;
48651;SDS011;34442;52.362;-1.302;2023-05-02T06:49:40;2.28;;;1.38;;
48651;SDS011;34442;52.362;-1.302;2023-05-02T06:52:06;2.88;;;1.33;;
48651;SDS011;34442;52.362;-1.302;2023-05-02T06:54:31;2.38;;;1.15;;
48651;SDS011;34442;52.362;-1.302;2023-05-02T06:56:56;1.48;;;1.05;;
48651;SDS011;34442;52.362;-1.302;2023-05-02T06:59:23;3.17;;;1.38;;
48651;SDS011;34442;52.362;-1.302;2023-05-02T07:01:48;3.75;;;1.60;;
48651;SDS011;34442;52.362;-1.302;2023-05-02T07:04:14;2.42;;;1.20;;
48651;SDS011;34442;52.362;-1.302;2023-05-02T07:06:39;3.35;;;1.33;;
48651;SDS011;34442;52.362;-1.302;2023-05-02T07:09:05;3.38;;;1.55;;
48651;SDS011;34442;52.362;-1.302;2023-05-02T07:11:30;3.50;;;1.50;;
48651;SDS011;34442;52.362;-1.302;2023-05-02T07:13:55;2.97;;;1.27;;
48651;SDS011;34442;52.362;-1.302;2023-05-02T07:16:21;3.53;;;1.50;;
48651;SDS011;34442;52.362;-1.302;2023-05-02T07:18:47;2.47;;;1.23;;
48651;SDS011;34442;52.362;-1.302;2023-05-02T07:21:12;2.47;;;1.17;;
48651;SDS011;34442;52.362;-1.302;2023-05-02T07:23:38;3.92;;;1.27;;
48651;SDS011;34442;52.362;-1.302;2023-05-02T07:26:03;3.80;;;1.20;;
48651;SDS011;34442;52.362;-1.302;2023-05-02T07:28:32;2.75;;;1.25;;
48651;SDS011;34442;52.362;-1.302;2023-05-02T07:31:00;2.67;;;1.30;;
48651;SDS011;34442;52.362;-1.302;2023-05-02T07:33:25;4.82;;;1.20;;
48651;SDS011;34442;52.362;-1.302;2023-05-02T07:35:51;2.35;;;1.20;;
48651;SDS011;34442;52.362;-1.302;2023-05-02T07:38:16;3.22;;;1.30;;
48651;SDS011;34442;52.362;-1.302;2023-05-02T07:40:41;1.25;;;1.15;;
48651;SDS011;34442;52.362;-1.302;2023-05-02T07:43:07;3.40;;;1.38;;
48651;SDS011;34442;52.362;-1.302;2023-05-02T07:45:33;3.40;;;1.50;;
48651;SDS011;34442;52.362;-1.302;2023-05-02T07:47:59;2.50;;;1.33;;
48651;SDS011;34442;52.362;-1.302;2023-05-02T07:50:25;2.30;;;1.23;;
48651;SDS011;34442;52.362;-1.302;2023-05-02T07:52:53;2.05;;;1.30;;
48651;SDS011;34442;52.362;-1.302;2023-05-02T07:55:20;2.28;;;1.20;;
48651;SDS011;34442;52.362;-1.302;2023-05-02T07:57:45;4.75;;;1.63;;
48651;SDS011;34442;52.362;-1.302;2023-05-02T08:00:11;2.70;;;1.48;;
48651;SDS011;34442;52.362;-1.302;2023-05-02T08:02:37;3.60;;;1.15;;
48651;SDS011;34442;52.362;-1.302;2023-05-02T08:05:02;2.42;;;1.50;;
48651;SDS011;34442;52.362;-1.302;2023-05-02T08:07:28;2.90;;;1.40;;
48651;SDS011;34442;52.362;-1.302;2023-05-02T08:09:53;3.83;;;1.92;;
48651;SDS011;34442;52.362;-1.302;2023-05-02T08:12:19;2.47;;;1.60;;
48651;SDS011;34442;52.362;-1.302;2023-05-02T08:14:44;2.88;;;1.85;;
48651;SDS011;34442;52.362;-1.302;2023-05-02T08:17:10;2.50;;;1.40;;
48651;SDS011;34442;52.362;-1.302;2023-05-02T08:19:36;3.38;;;1.83;;
48651;SDS011;34442;52.362;-1.302;2023-05-02T08:22:01;3.70;;;1.92;;
48651;SDS011;34442;52.362;-1.302;2023-05-02T08:24:26;3.63;;;1.80;;
48651;SDS011;34442;52.362;-1.302;2023-05-02T08:26:52;3.00;;;1.65;;
48651;SDS011;34442;52.362;-1.302;2023-05-02T08:29:17;3.10;;;1.70;;
48651;SDS011;34442;52.362;-1.302;2023-05-02T08:31:42;3.55;;;1.80;;
48651;SDS011;34442;52.362;-1.302;2023-05-02T08:34:08;4.80;;;2.60;;
48651;SDS011;34442;52.362;-1.302;2023-05-02T08:36:33;3.47;;;1.65;;
48651;SDS011;34442;52.362;-1.302;2023-05-02T08:38:59;3.35;;;1.50;;
48651;SDS011;34442;52.362;-1.302;2023-05-02T08:41:24;2.13;;;1.38;;
48651;SDS011;34442;52.362;-1.302;2023-05-02T08:43:53;1.60;;;1.30;;
48651;SDS011;34442;52.362;-1.302;2023-05-02T08:46:20;3.10;;;1.80;;
48651;SDS011;34442;52.362;-1.302;2023-05-02T08:48:47;3.17;;;1.60;;
48651;SDS011;34442;52.362;-1.302;2023-05-02T08:51:15;3.55;;;1.80;;
48651;SDS011;34442;52.362;-1.302;2023-05-02T08:53:41;1.45;;;1.30;;
48651;SDS011;34442;52.362;-1.302;2023-05-02T08:56:08;1.92;;;1.20;;
48651;SDS011;34442;52.362;-1.302;2023-05-02T08:58:38;1.92;;;1.45;;
48651;SDS011;34442;52.362;-1.302;2023-05-02T09:01:15;2.45;;;1.30;;
48651;SDS011;34442;52.362;-1.302;2023-05-02T09:03:42;2.47;;;1.60;;
48651;SDS011;34442;52.362;-1.302;2023-05-02T09:06:10;3.50;;;1.73;;
48651;SDS011;34442;52.362;-1.302;2023-05-02T09:08:37;4.15;;;2.28;;
48651;SDS011;34442;52.362;-1.302;2023-05-02T09:11:03;3.03;;;1.80;;
48651;SDS011;34442;52.362;-1.302;2023-05-02T09:13:30;3.78;;;1.88;;
48651;SDS011;34442;52.362;-1.302;2023-05-02T09:16:00;4.40;;;2.00;;
48651;SDS011;34442;52.362;-1.302;2023-05-02T09:18:30;3.25;;;1.80;;
48651;SDS011;34442;52.362;-1.302;2023-05-02T09:20:57;2.90;;;1.75;;
48651;SDS011;34442;52.362;-1.302;2023-05-02T09:26:09;4.72;;;2.10;;
48651;SDS011;34442;52.362;-1.302;2023-05-02T09:28:37;4.93;;;2.20;;
48651;SDS011;34442;52.362;-1.302;2023-05-02T09:31:07;4.60;;;2.40;;
48651;SDS011;34442;52.362;-1.302;2023-05-02T09:33:34;3.33;;;1.48;;
48651;SDS011;34442;52.362;-1.302;2023-05-02T09:36:00;2.58;;;1.50;;
48651;SDS011;34442;52.362;-1.302;2023-05-02T09:38:26;2.25;;;1.35;;
48651;SDS011;34442;52.362;-1.302;2023-05-02T09:40:54;2.30;;;1.40;;
48651;SDS011;34442;52.362;-1.302;2023-05-02T09:43:20;1.42;;;1.02;;
48651;SDS011;34442;52.362;-1.302;2023-05-02T09:46:02;1.95;;;1.17;;
48651;SDS011;34442;52.362;-1.302;2023-05-02T09:48:30;3.03;;;1.25;;
48651;SDS011;34442;52.362;-1.302;2023-05-02T09:50:57;2.00;;;1.27;;
48651;SDS011;34442;52.362;-1.302;2023-05-02T09:53:23;3.25;;;1.33;;
48651;SDS011;34442;52.362;-1.302;2023-05-02T09:55:59;2.33;;;1.35;;
48651;SDS011;34442;52.362;-1.302;2023-05-02T09:58:26;2.35;;;1.17;;
48651;SDS011;34442;52.362;-1.302;2023-05-02T10:00:51;2.00;;;1.20;;
48651;SDS011;34442;52.362;-1.302;2023-05-02T10:03:17;3.70;;;1.27;;
48651;SDS011;34442;52.362;-1.302;2023-05-02T10:05:46;2.88;;;1.50;;
48651;SDS011;34442;52.362;-1.302;2023-05-02T10:08:12;3.95;;;1.65;;
48651;SDS011;34442;52.362;-1.302;2023-05-02T10:10:39;2.90;;;1.20;;
48651;SDS011;34442;52.362;-1.302;2023-05-02T10:13:08;2.55;;;1.23;;
48651;SDS011;34442;52.362;-1.302;2023-05-02T10:15:36;2.08;;;1.30;;
48651;SDS011;34442;52.362;-1.302;2023-05-02T10:18:08;3.50;;;1.58;;
48651;SDS011;34442;52.362;-1.302;2023-05-02T10:20:54;2.40;;;1.30;;
48651;SDS011;34442;52.362;-1.302;2023-05-02T10:23:24;2.28;;;1.30;;
48651;SDS011;34442;52.362;-1.302;2023-05-02T10:25:51;2.15;;;1.15;;
48651;SDS011;34442;52.362;-1.302;2023-05-02T10:28:17;1.10;;;1.00;;
48651;SDS011;34442;52.362;-1.302;2023-05-02T10:30:42;1.55;;;1.15;;
48651;SDS011;34442;52.362;-1.302;2023-05-02T10:33:08;2.00;;;1.20;;
48651;SDS011;34442;52.362;-1.302;2023-05-02T10:35:37;1.23;;;0.80;;
48651;SDS011;34442;52.362;-1.302;2023-05-02T10:38:07;2.53;;;1.20;;
48651;SDS011;34442;52.362;-1.302;2023-05-02T10:40:33;2.28;;;1.15;;
48651;SDS011;34442;52.362;-1.302;2023-05-02T10:42:59;4.65;;;1.10;;
48651;SDS011;34442;52.362;-1.302;2023-05-02T10:45:29;2.40;;;1.02;;
48651;SDS011;34442;52.362;-1.302;2023-05-02T10:48:11;2.47;;;1.20;;
48651;SDS011;34442;52.362;-1.302;2023-05-02T10:50:48;1.90;;;1.20;;
48651;SDS011;34442;52.362;-1.302;2023-05-02T10:53:28;2.38;;;1.20;;
48651;SDS011;34442;52.362;-1.302;2023-05-02T10:58:40;1.23;;;0.95;;
48651;SDS011;34442;52.362;-1.302;2023-05-02T11:06:21;3.10;;;1.20;;
48651;SDS011;34442;52.362;-1.302;2023-05-02T11:08:46;1.75;;;1.00;;
48651;SDS011;34442;52.362;-1.302;2023-05-02T11:14:05;2.77;;;1.37;;
48651;SDS011;34442;52.362;-1.302;2023-05-02T11:24:46;1.77;;;1.05;;
48651;SDS011;34442;52.362;-1.302;2023-05-02T11:29:59;2.20;;;1.38;;
48651;SDS011;34442;52.362;-1.302;2023-05-02T11:37:42;3.92;;;1.38;;
48651;SDS011;34442;52.362;-1.302;2023-05-02T11:40:16;2.00;;;1.20;;
48651;SDS011;34442;52.362;-1.302;2023-05-02T11:42:42;3.05;;;1.52;;
48651;SDS011;34442;52.362;-1.302;2023-05-02T11:45:07;3.22;;;1.65;;
48651;SDS011;34442;52.362;-1.302;2023-05-02T11:47:34;2.80;;;1.55;;
48651;SDS011;34442;52.362;-1.302;2023-05-02T11:50:02;3.00;;;1.70;;
48651;SDS011;34442;52.362;-1.302;2023-05-02T11:52:28;2.00;;;1.20;;
48651;SDS011;34442;52.362;-1.302;2023-05-02T11:54:54;2.35;;;1.38;;
48651;SDS011;34442;52.362;-1.302;2023-05-02T11:57:21;2.00;;;1.27;;
48651;SDS011;34442;52.362;-1.302;2023-05-02T11:59:54;1.83;;;1.33;;
48651;SDS011;34442;52.362;-1.302;2023-05-02T12:02:40;3.65;;;1.70;;
48651;SDS011;34442;52.362;-1.302;2023-05-02T12:05:07;3.05;;;1.65;;
48651;SDS011;34442;52.362;-1.302;2023-05-02T12:07:41;2.42;;;1.38;;
48651;SDS011;34442;52.362;-1.302;2023-05-02T12:10:13;2.15;;;1.48;;
48651;SDS011;34442;52.362;-1.302;2023-05-02T12:12:41;2.10;;;1.33;;
48651;SDS011;34442;52.362;-1.302;2023-05-02T12:15:11;2.58;;;1.65;;
48651;SDS011;34442;52.362;-1.302;2023-05-02T12:17:40;1.73;;;1.30;;
48651;SDS011;34442;52.362;-1.302;2023-05-02T12:20:08;2.28;;;1.30;;
48651;SDS011;34442;52.362;-1.302;2023-05-02T12:22:34;3.05;;;1.25;;
48651;SDS011;34442;52.362;-1.302;2023-05-02T12:25:01;1.67;;;1.33;;
48651;SDS011;34442;52.362;-1.302;2023-05-02T12:27:27;2.92;;;1.65;;
48651;SDS011;34442;52.362;-1.302;2023-05-02T12:29:53;3.53;;;1.60;;
48651;SDS011;34442;52.362;-1.302;2023-05-02T12:32:31;3.60;;;1.50;;
48651;SDS011;34442;52.362;-1.302;2023-05-02T12:34:58;3.40;;;1.70;;
48651;SDS011;34442;52.362;-1.302;2023-05-02T12:37:26;3.17;;;1.73;;
48651;SDS011;34442;52.362;-1.302;2023-05-02T12:39:52;2.58;;;1.50;;
48651;SDS011;34442;52.362;-1.302;2023-05-02T12:42:23;3.72;;;1.60;;
48651;SDS011;34442;52.362;-1.302;2023-05-02T12:44:51;2.83;;;1.63;;
48651;SDS011;34442;52.362;-1.302;2023-05-02T12:47:17;3.85;;;1.85;;
48651;SDS011;34442;52.362;-1.302;2023-05-02T12:55:16;3.45;;;1.83;;
48651;SDS011;34442;52.362;-1.302;2023-05-02T12:57:42;3.28;;;1.50;;
48651;SDS011;34442;52.362;-1.302;2023-05-02T13:00:08;4.35;;;2.03;;
48651;SDS011;34442;52.362;-1.302;2023-05-02T13:02:34;3.60;;;1.60;;
48651;SDS011;34442;52.362;-1.302;2023-05-02T13:05:00;4.50;;;1.73;;
48651;SDS011;34442;52.362;-1.302;2023-05-02T13:07:25;3.08;;;1.67;;
48651;SDS011;34442;52.362;-1.302;2023-05-02T13:09:50;4.10;;;1.80;;
48651;SDS011;34442;52.362;-1.302;2023-05-02T13:12:16;2.35;;;1.33;;
48651;SDS011;34442;52.362;-1.302;2023-05-02T13:14:42;3.05;;;1.42;;
48651;SDS011;34442;52.362;-1.302;2023-05-02T13:17:07;2.80;;;1.50;;
48651;SDS011;34442;52.362;-1.302;2023-05-02T13:19:33;4.18;;;1.75;;
48651;SDS011;34442;52.362;-1.302;2023-05-02T13:21:58;2.85;;;1.70;;
48651;SDS011;34442;52.362;-1.302;2023-05-02T13:24:24;3.95;;;2.08;;
48651;SDS011;34442;52.362;-1.302;2023-05-02T13:26:50;5.00;;;2.08;;
48651;SDS011;34442;52.362;-1.302;2023-05-02T13:29:15;3.33;;;1.80;;
48651;SDS011;34442;52.362;-1.302;2023-05-02T13:31:41;5.20;;;2.92;;
48651;SDS011;34442;52.362;-1.302;2023-05-02T13:34:06;4.20;;;2.33;;
48651;SDS011;34442;52.362;-1.302;2023-05-02T13:36:32;3.22;;;1.80;;
48651;SDS011;34442;52.362;-1.302;2023-05-02T13:38:57;2.25;;;1.42;;
48651;SDS011;34442;52.362;-1.302;2023-05-02T13:41:23;2.83;;;1.67;;
48651;SDS011;34442;52.362;-1.302;2023-05-02T13:43:49;4.25;;;1.60;;
48651;SDS011;34442;52.362;-1.302;2023-05-02T13:46:14;3.08;;;1.80;;
48651;SDS011;34442;52.362;-1.302;2023-05-02T13:48:40;4.20;;;2.20;;
48651;SDS011;34442;52.362;-1.302;2023-05-02T13:51:05;2.67;;;1.52;;
48651;SDS011;34442;52.362;-1.302;2023-05-02T13:53:30;4.28;;;2.00;;
48651;SDS011;34442;52.362;-1.302;2023-05-02T13:55:56;2.58;;;1.55;;
48651;SDS011;34442;52.362;-1.302;2023-05-02T13:58:21;4.68;;;1.88;;
48651;SDS011;34442;52.362;-1.302;2023-05-02T14:00:47;3.75;;;1.95;;
48651;SDS011;34442;52.362;-1.302;2023-05-02T14:03:16;1.73;;;1.33;;
48651;SDS011;34442;52.362;-1.302;2023-05-02T14:05:41;3.25;;;2.03;;
48651;SDS011;34442;52.362;-1.302;2023-05-02T14:08:11;3.55;;;1.73;;
48651;SDS011;34442;52.362;-1.302;2023-05-02T14:10:37;2.55;;;1.60;;
48651;SDS011;34442;52.362;-1.302;2023-05-02T14:13:03;3.03;;;1.67;;
48651;SDS011;34442;52.362;-1.302;2023-05-02T14:15:29;4.10;;;2.22;;
48651;SDS011;34442;52.362;-1.302;2023-05-02T14:17:54;4.63;;;2.08;;
48651;SDS011;34442;52.362;-1.302;2023-05-02T14:20:20;4.13;;;2.38;;
48651;SDS011;34442;52.362;-1.302;2023-05-02T14:22:47;3.55;;;1.70;;
48651;SDS011;34442;52.362;-1.302;2023-05-02T14:25:13;3.15;;;1.42;;
48651;SDS011;34442;52.362;-1.302;2023-05-02T14:27:39;3.45;;;1.70;;
48651;SDS011;34442;52.362;-1.302;2023-05-02T14:30:05;3.45;;;1.90;;
48651;SDS011;34442;52.362;-1.302;2023-05-02T14:32:32;2.55;;;1.60;;
48651;SDS011;34442;52.362;-1.302;2023-05-02T14:34:57;4.50;;;2.45;;
48651;SDS011;34442;52.362;-1.302;2023-05-02T14:37:23;3.42;;;1.73;;
48651;SDS011;34442;52.362;-1.302;2023-05-02T14:39:48;3.65;;;2.05;;
48651;SDS011;34442;52.362;-1.302;2023-05-02T14:42:16;2.83;;;1.55;;
48651;SDS011;34442;52.362;-1.302;2023-05-02T14:44:42;3.28;;;1.83;;
48651;SDS011;34442;52.362;-1.302;2023-05-02T14:47:07;2.22;;;1.48;;
48651;SDS011;34442;52.362;-1.302;2023-05-02T14:49:32;3.13;;;1.55;;
48651;SDS011;34442;52.362;-1.302;2023-05-02T14:51:58;3.35;;;1.55;;
48651;SDS011;34442;52.362;-1.302;2023-05-02T14:54:27;2.53;;;1.60;;
48651;SDS011;34442;52.362;-1.302;2023-05-02T14:56:54;3.65;;;1.70;;
48651;SDS011;34442;52.362;-1.302;2023-05-02T14:59:20;2.92;;;1.50;;
48651;SDS011;34442;52.362;-1.302;2023-05-02T15:01:45;3.30;;;1.70;;
48651;SDS011;34442;52.362;-1.302;2023-05-02T15:04:10;2.92;;;1.50;;
48651;SDS011;34442;52.362;-1.302;2023-05-02T15:06:36;3.00;;;1.67;;
48651;SDS011;34442;52.362;-1.302;2023-05-02T15:09:02;3.20;;;1.73;;
48651;SDS011;34442;52.362;-1.302;2023-05-02T15:11:28;3.65;;;1.40;;
48651;SDS011;34442;52.362;-1.302;2023-05-02T15:13:54;4.10;;;2.00;;
48651;SDS011;34442;52.362;-1.302;2023-05-02T15:16:20;3.20;;;1.77;;
48651;SDS011;34442;52.362;-1.302;2023-05-02T15:18:45;5.53;;;2.47;;
48651;SDS011;34442;52.362;-1.302;2023-05-02T15:21:11;5.38;;;2.70;;
48651;SDS011;34442;52.362;-1.302;2023-05-02T15:23:36;3.72;;;1.65;;
48651;SDS011;34442;52.362;-1.302;2023-05-02T15:26:02;2.67;;;1.85;;
48651;SDS011;34442;52.362;-1.302;2023-05-02T15:28:28;3.22;;;1.70;;